^^
Station Historical Data
Daily Summary for January 14, 2018 Units:  Both    English   Metric
Next Day »
Daily Weekly Monthly Yearly Custom
  High: Low: Average:
Temperature: 82.9 °F /  28.3 °C 48.6 °F /  9.2 °C 61 °F /  16.1 °C
Dew Point: 36.9 °F /  2.7 °C 22.6 °F /  -5.2 °C 31.1 °F /  -0.5 °C
Humidity: 50% 11% 36%
Wind Speed: 6.9mph /  11.1km/h - 2.2mph /  3.5km/h
Wind Gust: 6.9mph /  11.1km/h - -
Wind- - SE
Pressure: 30.2 in /  1021.9 hPa 30 in /  1016.8 hPa -
Precipitation: 0 in /  0.0 mm    
Historical Graphs
 
 
Tabular Data for January 14, 2018
Time Temperature Dew Point Pressure Wind Wind Speed Wind Gust Humidity Rainfall Rate (Hourly) solar Conditions
00:05 52.5 °F /  11.4 °C 31.8 °F /  -0.1 °C 30.1in /  1020.2hPa Calm     45% 0in /  0.0mm 0.0 W/m2 CLR
00:10 52.5 °F /  11.4 °C 31.8 °F /  -0.1 °C 30.1in /  1020.2hPa NNE 1.2mph /  1.9km/h   45% 0in /  0.0mm 0.0 W/m2 CLR
00:18 52.3 °F /  11.3 °C 32.2 °F /  0.1 °C 30.1in /  1020.2hPa NE 1.2mph /  1.9km/h 1.2mph /  1.9km/h 46% 0in /  0.0mm 0.0 W/m2 CLR
00:23 52.2 °F /  11.2 °C 32 °F /  0.0 °C 30.1in /  1020.2hPa East 2.3mph /  3.7km/h 2.3mph /  3.7km/h 46% 0in /  0.0mm 0.0 W/m2 CLR
00:36 52.2 °F /  11.2 °C 31.8 °F /  -0.1 °C 30.1in /  1020.2hPa ENE 2.3mph /  3.7km/h 2.3mph /  3.7km/h 46% 0in /  0.0mm 0.0 W/m2 CLR
00:42 52.2 °F /  11.2 °C 32 °F /  0.0 °C 30.1in /  1019.9hPa NE 1.2mph /  1.9km/h 1.2mph /  1.9km/h 46% 0in /  0.0mm 0.0 W/m2 CLR
00:51 52.3 °F /  11.3 °C 31.6 °F /  -0.2 °C 30.1in /  1019.9hPa NE 2.3mph /  3.7km/h 2.3mph /  3.7km/h 45% 0in /  0.0mm 0.0 W/m2 CLR
00:56 52.3 °F /  11.3 °C 31.6 °F /  -0.2 °C 30.1in /  1019.9hPa ESE 2.3mph /  3.7km/h 2.3mph /  3.7km/h 45% 0in /  0.0mm 0.0 W/m2 CLR
01:05 52.3 °F /  11.3 °C 31.6 °F /  -0.2 °C 30.1in /  1019.9hPa ENE 1.2mph /  1.9km/h 1.2mph /  1.9km/h 45% 0in /  0.0mm 0.0 W/m2 CLR
01:16 52.3 °F /  11.3 °C 30.9 °F /  -0.6 °C 30.1in /  1019.9hPa East 1.2mph /  1.9km/h 1.2mph /  1.9km/h 44% 0in /  0.0mm 0.0 W/m2 CLR
01:28 52 °F /  11.1 °C 31.3 °F /  -0.4 °C 30.1in /  1019.9hPa East 2.3mph /  3.7km/h 2.3mph /  3.7km/h 45% 0in /  0.0mm 0.0 W/m2 CLR
01:42 51.6 °F /  10.9 °C 30.9 °F /  -0.6 °C 30.1in /  1019.9hPa East 2.3mph /  3.7km/h 2.3mph /  3.7km/h 45% 0in /  0.0mm 0.0 W/m2 CLR
01:49 51.6 °F /  10.9 °C 30.9 °F /  -0.6 °C 30.1in /  1019.9hPa NNE 2mph /  3.2km/h 2mph /  3.2km/h 45% 0in /  0.0mm 0.0 W/m2 CLR
01:55 51.6 °F /  10.9 °C 30.9 °F /  -0.6 °C 30.1in /  1019.9hPa NE 1mph /  1.6km/h 1mph /  1.6km/h 45% 0in /  0.0mm 0.0 W/m2 CLR
02:05 51.4 °F /  10.8 °C 30.7 °F /  -0.7 °C 30.1in /  1019.9hPa NE 2.3mph /  3.7km/h 2.3mph /  3.7km/h 45% 0in /  0.0mm 0.0 W/m2 CLR
02:13 51.4 °F /  10.8 °C 30.7 °F /  -0.7 °C 30.1in /  1019.9hPa NE 1.2mph /  1.9km/h 1.2mph /  1.9km/h 45% 0in /  0.0mm 0.0 W/m2 CLR
02:26 51.4 °F /  10.8 °C 30.7 °F /  -0.7 °C 30.1in /  1020.2hPa NE 2.3mph /  3.7km/h 2.3mph /  3.7km/h 45% 0in /  0.0mm 0.0 W/m2 CLR
02:31 51.4 °F /  10.8 °C 30.7 °F /  -0.7 °C 30.1in /  1020.2hPa NE 3.5mph /  5.6km/h 3.5mph /  5.6km/h 45% 0in /  0.0mm 0.0 W/m2 CLR
02:36 51.4 °F /  10.8 °C 30.7 °F /  -0.7 °C 30.1in /  1020.2hPa ENE 4mph /  6.4km/h 4mph /  6.4km/h 45% 0in /  0.0mm 0.0 W/m2 CLR
02:44 51.3 °F /  10.7 °C 30.7 °F /  -0.7 °C 30.1in /  1020.2hPa NE 1.2mph /  1.9km/h 1.2mph /  1.9km/h 45% 0in /  0.0mm 0.0 W/m2 CLR
02:57 51.3 °F /  10.7 °C 31.1 °F /  -0.5 °C 30.1in /  1019.9hPa NE 2.3mph /  3.7km/h 2.3mph /  3.7km/h 46% 0in /  0.0mm 0.0 W/m2 CLR
03:04 50.9 °F /  10.5 °C 30.9 °F /  -0.6 °C 30.1in /  1019.9hPa ENE 1mph /  1.6km/h 2mph /  3.2km/h 46% 0in /  0.0mm 0.0 W/m2 CLR
03:09 50.7 °F /  10.4 °C 30.7 °F /  -0.7 °C 30.1in /  1020.2hPa ENE 2.3mph /  3.7km/h 2.3mph /  3.7km/h 46% 0in /  0.0mm 0.0 W/m2 CLR
03:22 50.5 °F /  10.3 °C 31.1 °F /  -0.5 °C 30.1in /  1020.2hPa NE 2mph /  3.2km/h 2mph /  3.2km/h 47% 0in /  0.0mm 0.0 W/m2 CLR
03:38 50.2 °F /  10.1 °C 31.3 °F /  -0.4 °C 30.1in /  1020.2hPa ENE 2.3mph /  3.7km/h 2.3mph /  3.7km/h 48% 0in /  0.0mm 0.0 W/m2 CLR
03:49 49.8 °F /  9.9 °C 30.9 °F /  -0.6 °C 30.1in /  1020.2hPa ENE 3.5mph /  5.6km/h 3.5mph /  5.6km/h 48% 0in /  0.0mm 0.0 W/m2 CLR
03:57 49.6 °F /  9.8 °C 30.7 °F /  -0.7 °C 30.1in /  1019.9hPa NE 2.3mph /  3.7km/h 2.3mph /  3.7km/h 48% 0in /  0.0mm 0.0 W/m2 CLR
04:02 49.6 °F /  9.8 °C 31.3 °F /  -0.4 °C 30.1in /  1019.9hPa NE 2.3mph /  3.7km/h 2.3mph /  3.7km/h 49% 0in /  0.0mm 0.0 W/m2 CLR
04:07 49.6 °F /  9.8 °C 31.3 °F /  -0.4 °C 30.1in /  1019.9hPa NE 2.3mph /  3.7km/h 2.3mph /  3.7km/h 49% 0in /  0.0mm 0.0 W/m2 CLR
04:12 49.5 °F /  9.7 °C 30.9 °F /  -0.6 °C 30.1in /  1019.9hPa NNE 3.5mph /  5.6km/h 3.5mph /  5.6km/h 49% 0in /  0.0mm 0.0 W/m2 CLR
04:19 49.3 °F /  9.6 °C 30.9 °F /  -0.6 °C 30.1in /  1019.9hPa NE 2.3mph /  3.7km/h 2.3mph /  3.7km/h 49% 0in /  0.0mm 0.0 W/m2 CLR
04:32 48.9 °F /  9.4 °C 31.3 °F /  -0.4 °C 30.1in /  1020.2hPa NNE 3.5mph /  5.6km/h 3.5mph /  5.6km/h 50% 0in /  0.0mm 0.0 W/m2 CLR
04:37 48.7 °F /  9.3 °C 30.9 °F /  -0.6 °C 30.1in /  1020.2hPa NE 2.3mph /  3.7km/h 2.3mph /  3.7km/h 50% 0in /  0.0mm 0.0 W/m2 CLR
04:43 48.7 °F /  9.3 °C 30.9 °F /  -0.6 °C 30.1in /  1020.2hPa ESE 2.3mph /  3.7km/h 2.3mph /  3.7km/h 50% 0in /  0.0mm 0.0 W/m2 CLR
04:48 48.7 °F /  9.3 °C 30.9 °F /  -0.6 °C 30.1in /  1020.2hPa NE 2.3mph /  3.7km/h 2.3mph /  3.7km/h 50% 0in /  0.0mm 0.0 W/m2 CLR
04:55 48.7 °F /  9.3 °C 30.6 °F /  -0.8 °C 30.1in /  1020.2hPa East 1.2mph /  1.9km/h 1.2mph /  1.9km/h 49% 0in /  0.0mm 0.0 W/m2 CLR
05:00 48.9 °F /  9.4 °C 30 °F /  -1.1 °C 30.1in /  1020.2hPa East 2.3mph /  3.7km/h 2.3mph /  3.7km/h 48% 0in /  0.0mm 0.0 W/m2 CLR
05:06 48.9 °F /  9.4 °C 30 °F /  -1.1 °C 30.1in /  1020.2hPa ESE 1.2mph /  1.9km/h 1.2mph /  1.9km/h 48% 0in /  0.0mm 0.0 W/m2 CLR
05:18 48.9 °F /  9.4 °C 30 °F /  -1.1 °C 30.1in /  1019.9hPa ESE 1.2mph /  1.9km/h 1.2mph /  1.9km/h 48% 0in /  0.0mm 0.0 W/m2 CLR
05:39 48.7 °F /  9.3 °C 30.4 °F /  -0.9 °C 30.1in /  1019.9hPa ESE 2.3mph /  3.7km/h 2.3mph /  3.7km/h 49% 0in /  0.0mm 0.0 W/m2 CLR
05:51 48.7 °F /  9.3 °C 30.4 °F /  -0.9 °C 30.1in /  1019.9hPa SE 2.3mph /  3.7km/h 2.3mph /  3.7km/h 49% 0in /  0.0mm 0.0 W/m2 CLR
05:56 48.7 °F /  9.3 °C 30.6 °F /  -0.8 °C 30.1in /  1019.9hPa ESE 2.3mph /  3.7km/h 2.3mph /  3.7km/h 49% 0in /  0.0mm 0.0 W/m2 CLR
06:03 48.7 °F /  9.3 °C 30 °F /  -1.1 °C 30.1in /  1019.9hPa ESE 1.2mph /  1.9km/h 1.2mph /  1.9km/h 48% 0in /  0.0mm 0.0 W/m2 CLR
06:17 49.1 °F /  9.5 °C 30.2 °F /  -1.0 °C 30.1in /  1020.2hPa East 2.3mph /  3.7km/h 2.3mph /  3.7km/h 48% 0in /  0.0mm 0.0 W/m2 CLR
06:22 49.3 °F /  9.6 °C 29.8 °F /  -1.2 °C 30.1in /  1020.2hPa ENE 3.5mph /  5.6km/h 3.5mph /  5.6km/h 47% 0in /  0.0mm 0.0 W/m2 CLR
06:30 49.5 °F /  9.7 °C 29.7 °F /  -1.3 °C 30.1in /  1020.2hPa East 1.2mph /  1.9km/h 1.2mph /  1.9km/h 46% 0in /  0.0mm 0.0 W/m2 CLR
06:35 49.5 °F /  9.7 °C 29.7 °F /  -1.3 °C 30.1in /  1020.2hPa East 1.2mph /  1.9km/h 1.2mph /  1.9km/h 46% 0in /  0.0mm 0.0 W/m2 CLR
06:40 49.5 °F /  9.7 °C 29.5 °F /  -1.4 °C 30.1in /  1020.2hPa East 1.2mph /  1.9km/h 1.2mph /  1.9km/h 46% 0in /  0.0mm 0.0 W/m2 CLR
06:49 48.9 °F /  9.4 °C 30 °F /  -1.1 °C 30.1in /  1020.5hPa ENE 1.2mph /  1.9km/h 1.2mph /  1.9km/h 48% 0in /  0.0mm 0.0 W/m2 CLR
06:55 48.7 °F /  9.3 °C 30 °F /  -1.1 °C 30.1in /  1020.5hPa ENE 1.2mph /  1.9km/h 1.2mph /  1.9km/h 48% 0in /  0.0mm 0.0 W/m2 CLR
07:00 48.6 °F /  9.2 °C 29.8 °F /  -1.2 °C 30.1in /  1020.5hPa ENE 1.2mph /  1.9km/h   48% 0in /  0.0mm 0.0 W/m2 CLR
07:06 48.6 °F /  9.2 °C 29.7 °F /  -1.3 °C 30.1in /  1020.5hPa Calm     48% 0in /  0.0mm 0.0 W/m2 CLR
07:12 48.6 °F /  9.2 °C 29.1 °F /  -1.6 °C 30.1in /  1020.5hPa ENE 3.5mph /  5.6km/h 3.5mph /  5.6km/h 47% 0in /  0.0mm 0.0 W/m2 CLR
07:22 48.9 °F /  9.4 °C 28.9 °F /  -1.7 °C 30.2in /  1020.9hPa East 1.2mph /  1.9km/h 1.2mph /  1.9km/h 46% 0in /  0.0mm 0.0 W/m2 CLR
07:36 48.7 °F /  9.3 °C 29.5 °F /  -1.4 °C 30.2in /  1020.9hPa East 2.3mph /  3.7km/h 2.3mph /  3.7km/h 47% 0in /  0.0mm 11.0 W/m2 CLR
07:43 48.7 °F /  9.3 °C 29.5 °F /  -1.4 °C 30.2in /  1020.9hPa East 1.2mph /  1.9km/h 1.2mph /  1.9km/h 47% 0in /  0.0mm 18.0 W/m2 CLR
07:50 48.9 °F /  9.4 °C 29.1 °F /  -1.6 °C 30.2in /  1020.9hPa SE 2mph /  3.2km/h 2mph /  3.2km/h 46% 0in /  0.0mm 26.0 W/m2 CLR
07:55 49.3 °F /  9.6 °C 29.3 °F /  -1.5 °C 30.2in /  1020.9hPa SE 1.2mph /  1.9km/h 1.2mph /  1.9km/h 46% 0in /  0.0mm 30.0 W/m2 CLR
08:08 50.5 °F /  10.3 °C 29.5 °F /  -1.4 °C 30.2in /  1021.2hPa ESE 2.3mph /  3.7km/h 2.3mph /  3.7km/h 44% 0in /  0.0mm 54.0 W/m2 CLR
08:14 51.1 °F /  10.6 °C 29.5 °F /  -1.4 °C 30.2in /  1021.2hPa East 2mph /  3.2km/h 2mph /  3.2km/h 43% 0in /  0.0mm 42.0 W/m2 CLR
08:31 53.2 °F /  11.8 °C 29.7 °F /  -1.3 °C 30.2in /  1021.2hPa East 3mph /  4.8km/h 3mph /  4.8km/h 40% 0in /  0.0mm 204.0 W/m2 CLR
08:45 55 °F /  12.8 °C 29.8 °F /  -1.2 °C 30.2in /  1021.6hPa NNE 3.5mph /  5.6km/h 3.5mph /  5.6km/h 38% 0in /  0.0mm 269.0 W/m2 CLR
08:52 55.8 °F /  13.2 °C 30.6 °F /  -0.8 °C 30.2in /  1021.6hPa NNE 3mph /  4.8km/h 3mph /  4.8km/h 38% 0in /  0.0mm 290.0 W/m2 CLR
09:04 57 °F /  13.9 °C 30.4 °F /  -0.9 °C 30.2in /  1021.6hPa SE 2.3mph /  3.7km/h 2.3mph /  3.7km/h 36% 0in /  0.0mm 339.0 W/m2 CLR
09:09 57.6 °F /  14.2 °C 30.7 °F /  -0.7 °C 30.2in /  1021.6hPa ENE 3.5mph /  5.6km/h 3.5mph /  5.6km/h 36% 0in /  0.0mm 359.0 W/m2 CLR
09:14 58.3 °F /  14.6 °C 30.7 °F /  -0.7 °C 30.2in /  1021.6hPa ESE 2.3mph /  3.7km/h 2.3mph /  3.7km/h 35% 0in /  0.0mm 397.0 W/m2 CLR
09:19 58.8 °F /  14.9 °C 31.3 °F /  -0.4 °C 30.2in /  1021.6hPa East 4.6mph /  7.4km/h 4.6mph /  7.4km/h 35% 0in /  0.0mm 403.0 W/m2 CLR
09:46 61.3 °F /  16.3 °C 30.4 °F /  -0.9 °C 30.2in /  1021.9hPa ESE 3.5mph /  5.6km/h 3.5mph /  5.6km/h 31% 0in /  0.0mm 371.0 W/m2 CLR
09:51 61.7 °F /  16.5 °C 29.8 °F /  -1.2 °C 30.2in /  1021.9hPa SE 3.5mph /  5.6km/h 3.5mph /  5.6km/h 30% 0in /  0.0mm 360.0 W/m2 CLR
09:59 62.1 °F /  16.7 °C 30.2 °F /  -1.0 °C 30.2in /  1021.9hPa ESE 2.3mph /  3.7km/h 2.3mph /  3.7km/h 30% 0in /  0.0mm 408.0 W/m2 CLR
10:06 62.4 °F /  16.9 °C 30.6 °F /  -0.8 °C 30.2in /  1021.9hPa ENE 3.5mph /  5.6km/h 3.5mph /  5.6km/h 30% 0in /  0.0mm 369.0 W/m2 FEW
10:11 62.8 °F /  17.1 °C 30 °F /  -1.1 °C 30.2in /  1021.9hPa NE 4.6mph /  7.4km/h 4.6mph /  7.4km/h 29% 0in /  0.0mm 369.0 W/m2 FEW
10:27 63.9 °F /  17.7 °C 30.9 °F /  -0.6 °C 30.2in /  1021.9hPa ENE 4.6mph /  7.4km/h 4.6mph /  7.4km/h 29% 0in /  0.0mm 443.0 W/m2 FEW
10:33 64.2 °F /  17.9 °C 31.3 °F /  -0.4 °C 30.2in /  1021.6hPa NNE 3.5mph /  5.6km/h 3.5mph /  5.6km/h 29% 0in /  0.0mm 520.0 W/m2 FEW
10:40 64.9 °F /  18.3 °C 31.1 °F /  -0.5 °C 30.2in /  1021.6hPa ESE 2.3mph /  3.7km/h 2.3mph /  3.7km/h 28% 0in /  0.0mm 606.0 W/m2 FEW
10:49 65.8 °F /  18.8 °C 29.8 °F /  -1.2 °C 30.2in /  1021.6hPa NNE 2.3mph /  3.7km/h 2.3mph /  3.7km/h 26% 0in /  0.0mm 642.0 W/m2 FEW
10:58 66.9 °F /  19.4 °C 29.8 °F /  -1.2 °C 30.2in /  1021.6hPa East 2.3mph /  3.7km/h 2.3mph /  3.7km/h 25% 0in /  0.0mm 831.0 W/m2 FEW
11:12 68.5 °F /  20.3 °C 30.4 °F /  -0.9 °C 30.2in /  1021.6hPa NE 2.3mph /  3.7km/h 2.3mph /  3.7km/h 24% 0in /  0.0mm 483.0 W/m2 CLR
11:28 70 °F /  21.1 °C 28.2 °F /  -2.1 °C 30.2in /  1021.2hPa South 1.2mph /  1.9km/h 1.2mph /  1.9km/h 21% 0in /  0.0mm 596.0 W/m2 CLR
11:34 70.3 °F /  21.3 °C 29.7 °F /  -1.3 °C 30.2in /  1021.2hPa NNE 1.2mph /  1.9km/h 1.2mph /  1.9km/h 22% 0in /  0.0mm 582.0 W/m2 CLR
11:44 70.9 °F /  21.6 °C 28.9 °F /  -1.7 °C 30.2in /  1020.9hPa SE 1.2mph /  1.9km/h 1.2mph /  1.9km/h 21% 0in /  0.0mm 471.0 W/m2 CLR
11:49 71.1 °F /  21.7 °C 29.1 °F /  -1.6 °C 30.2in /  1020.9hPa SE 2.3mph /  3.7km/h 2.3mph /  3.7km/h 21% 0in /  0.0mm 638.0 W/m2 CLR
11:56 71.6 °F /  22.0 °C 28.4 °F /  -2.0 °C 30.1in /  1020.5hPa SE 1.2mph /  1.9km/h 1.2mph /  1.9km/h 20% 0in /  0.0mm 675.0 W/m2 CLR
12:01 72 °F /  22.2 °C 27.5 °F /  -2.5 °C 30.1in /  1020.5hPa SE 2.3mph /  3.7km/h 2.3mph /  3.7km/h 19% 0in /  0.0mm 543.0 W/m2 CLR
12:08 72.5 °F /  22.5 °C 29.1 °F /  -1.6 °C 30.1in /  1020.5hPa East 2mph /  3.2km/h 2mph /  3.2km/h 20% 0in /  0.0mm 659.0 W/m2 CLR
12:13 73 °F /  22.8 °C 28.4 °F /  -2.0 °C 30.1in /  1020.2hPa NE 3.5mph /  5.6km/h 3.5mph /  5.6km/h 19% 0in /  0.0mm 529.0 W/m2 CLR
12:37 74.1 °F /  23.4 °C 26.4 °F /  -3.1 °C 30.1in /  1019.9hPa ENE 3mph /  4.8km/h 3mph /  4.8km/h 17% 0in /  0.0mm 596.0 W/m2 CLR
12:55 74.5 °F /  23.6 °C 26.8 °F /  -2.9 °C 30.1in /  1019.2hPa NE 4.6mph /  7.4km/h 4.6mph /  7.4km/h 17% 0in /  0.0mm 638.0 W/m2 CLR
13:12 75.2 °F /  24.0 °C 27.3 °F /  -2.6 °C 30.1in /  1018.8hPa NE 6.9mph /  11.1km/h 6.9mph /  11.1km/h 17% 0in /  0.0mm 659.0 W/m2 CLR
13:20 75.7 °F /  24.3 °C 27.9 °F /  -2.3 °C 30.1in /  1018.5hPa NNE 3.5mph /  5.6km/h 3.5mph /  5.6km/h 17% 0in /  0.0mm 663.0 W/m2 CLR
13:25 75.9 °F /  24.4 °C 28 °F /  -2.2 °C 30.1in /  1018.5hPa ENE 1.2mph /  1.9km/h 1.2mph /  1.9km/h 17% 0in /  0.0mm 636.0 W/m2 CLR
13:43 77.4 °F /  25.2 °C 26.1 °F /  -3.3 °C 30.1in /  1018.2hPa NE 3.5mph /  5.6km/h 3.5mph /  5.6km/h 15% 0in /  0.0mm 659.0 W/m2 CLR
13:50 77.7 °F /  25.4 °C 28 °F /  -2.2 °C 30.1in /  1017.8hPa North 3mph /  4.8km/h 3mph /  4.8km/h 16% 0in /  0.0mm 619.0 W/m2 CLR
14:00 78.3 °F /  25.7 °C 26.8 °F /  -2.9 °C 30.1in /  1017.8hPa NE 4.6mph /  7.4km/h 4.6mph /  7.4km/h 15% 0in /  0.0mm 601.0 W/m2 CLR
14:06 78.4 °F /  25.8 °C 27 °F /  -2.8 °C 30.1in /  1017.5hPa North 2.3mph /  3.7km/h 2.3mph /  3.7km/h 15% 0in /  0.0mm 591.0 W/m2 CLR
14:14 79.2 °F /  26.2 °C 27.5 °F /  -2.5 °C 30.1in /  1017.5hPa North 4mph /  6.4km/h 4mph /  6.4km/h 15% 0in /  0.0mm 571.0 W/m2 CLR
14:20 79.5 °F /  26.4 °C 27.9 °F /  -2.3 °C 30.1in /  1017.5hPa NE 4.6mph /  7.4km/h 4.6mph /  7.4km/h 15% 0in /  0.0mm 520.0 W/m2 CLR
14:27 79.7 °F /  26.5 °C 27.9 °F /  -2.3 °C 30in /  1017.2hPa NNE 2.3mph /  3.7km/h 2.3mph /  3.7km/h 15% 0in /  0.0mm 527.0 W/m2 CLR
14:33 80.2 °F /  26.8 °C 26.8 °F /  -2.9 °C 30in /  1017.2hPa North 3.5mph /  5.6km/h 3.5mph /  5.6km/h 14% 0in /  0.0mm 547.0 W/m2 CLR
14:39 80.4 °F /  26.9 °C 25.2 °F /  -3.8 °C 30in /  1017.2hPa NNE 2.3mph /  3.7km/h 2.3mph /  3.7km/h 13% 0in /  0.0mm 529.0 W/m2 CLR
14:44 80.8 °F /  27.1 °C 27 °F /  -2.8 °C 30in /  1017.2hPa NNE 2.3mph /  3.7km/h 2.3mph /  3.7km/h 14% 0in /  0.0mm 515.0 W/m2 CLR
14:49 81.3 °F /  27.4 °C 27.5 °F /  -2.5 °C 30in /  1017.2hPa North 1.2mph /  1.9km/h 1.2mph /  1.9km/h 14% 0in /  0.0mm 499.0 W/m2 CLR
14:58 82.2 °F /  27.9 °C 26.4 °F /  -3.1 °C 30in /  1017.2hPa North 1.2mph /  1.9km/h 1.2mph /  1.9km/h 13% 0in /  0.0mm 499.0 W/m2 CLR
15:06 82.6 °F /  28.1 °C 22.6 °F /  -5.2 °C 30in /  1016.8hPa North 2.3mph /  3.7km/h 2.3mph /  3.7km/h 11% 0in /  0.0mm 454.0 W/m2 CLR
15:30 82.9 °F /  28.3 °C 25.2 °F /  -3.8 °C 30in /  1016.8hPa WSW 3.5mph /  5.6km/h 3.5mph /  5.6km/h 12% 0in /  0.0mm 394.0 W/m2 CLR
15:35 82.9 °F /  28.3 °C 23 °F /  -5.0 °C 30in /  1016.8hPa NW 3.5mph /  5.6km/h 3.5mph /  5.6km/h 11% 0in /  0.0mm 339.0 W/m2 CLR
15:40 82.8 °F /  28.2 °C 25 °F /  -3.9 °C 30in /  1016.8hPa NW 1.2mph /  1.9km/h   12% 0in /  0.0mm 323.0 W/m2 CLR
15:49 82.6 °F /  28.1 °C 24.6 °F /  -4.1 °C 30in /  1016.8hPa NNW 1.2mph /  1.9km/h   12% 0in /  0.0mm 272.0 W/m2 CLR
15:54 82.2 °F /  27.9 °C 24.6 °F /  -4.1 °C 30in /  1016.8hPa West 2.3mph /  3.7km/h 2.3mph /  3.7km/h 12% 0in /  0.0mm 227.0 W/m2 CLR
16:01 82.2 °F /  27.9 °C 24.4 °F /  -4.2 °C 30in /  1016.8hPa West 2.3mph /  3.7km/h 2.3mph /  3.7km/h 12% 0in /  0.0mm 251.0 W/m2 CLR
16:07 81.9 °F /  27.7 °C 24.3 °F /  -4.3 °C 30in /  1016.8hPa West 2.3mph /  3.7km/h 2.3mph /  3.7km/h 12% 0in /  0.0mm 176.0 W/m2 CLR
16:17 81.3 °F /  27.4 °C 27.5 °F /  -2.5 °C 30in /  1016.8hPa West 2.3mph /  3.7km/h 2.3mph /  3.7km/h 14% 0in /  0.0mm 229.0 W/m2 CLR
16:22 81.1 °F /  27.3 °C 27.3 °F /  -2.6 °C 30in /  1016.8hPa WNW 2.3mph /  3.7km/h 2.3mph /  3.7km/h 14% 0in /  0.0mm 221.0 W/m2 CLR
16:39 80.4 °F /  26.9 °C 34.3 °F /  1.3 °C 30in /  1016.8hPa West 4mph /  6.4km/h 4mph /  6.4km/h 19% 0in /  0.0mm 158.0 W/m2 CLR
16:46 79 °F /  26.1 °C 35.6 °F /  2.0 °C 30in /  1016.8hPa WSW 4.6mph /  7.4km/h 4.6mph /  7.4km/h 21% 0in /  0.0mm 128.0 W/m2 CLR
16:51 78.1 °F /  25.6 °C 34.9 °F /  1.6 °C 30in /  1016.8hPa West 6.9mph /  11.1km/h 6.9mph /  11.1km/h 21% 0in /  0.0mm 93.0 W/m2 CLR
16:56 77 °F /  25.0 °C 34.2 °F /  1.2 °C 30in /  1016.8hPa West 4.6mph /  7.4km/h 4.6mph /  7.4km/h 21% 0in /  0.0mm 72.0 W/m2 CLR
17:01 75.9 °F /  24.4 °C 34.3 °F /  1.3 °C 30in /  1016.8hPa West 3.5mph /  5.6km/h 3.5mph /  5.6km/h 22% 0in /  0.0mm 56.0 W/m2 CLR
17:28 73.4 °F /  23.0 °C 33.3 °F /  0.7 °C 30in /  1017.2hPa West 3.5mph /  5.6km/h 3.5mph /  5.6km/h 23% 0in /  0.0mm 16.0 W/m2 CLR
17:40 72 °F /  22.2 °C 33.1 °F /  0.6 °C 30in /  1017.2hPa WSW 2.3mph /  3.7km/h 2.3mph /  3.7km/h 24% 0in /  0.0mm 0.0 W/m2 CLR
17:48 71.1 °F /  21.7 °C 33.4 °F /  0.8 °C 30in /  1017.2hPa West 3.5mph /  5.6km/h 3.5mph /  5.6km/h 25% 0in /  0.0mm 0.0 W/m2 CLR
17:55 70.2 °F /  21.2 °C 33.6 °F /  0.9 °C 30.1in /  1017.5hPa West 2.3mph /  3.7km/h 2.3mph /  3.7km/h 26% 0in /  0.0mm 0.0 W/m2 CLR
18:01 69.3 °F /  20.7 °C 34.9 °F /  1.6 °C 30.1in /  1017.5hPa WSW 3.5mph /  5.6km/h 3.5mph /  5.6km/h 28% 0in /  0.0mm 0.0 W/m2 CLR
18:08 68.5 °F /  20.3 °C 35.1 °F /  1.7 °C 30.1in /  1017.5hPa WSW 2.3mph /  3.7km/h 2.3mph /  3.7km/h 29% 0in /  0.0mm 0.0 W/m2 CLR
18:15 68 °F /  20.0 °C 34.5 °F /  1.4 °C 30.1in /  1017.5hPa WSW 2.3mph /  3.7km/h 2.3mph /  3.7km/h 29% 0in /  0.0mm 0.0 W/m2 CLR
18:22 67.6 °F /  19.8 °C 34.2 °F /  1.2 °C 30.1in /  1017.5hPa WSW 1mph /  1.6km/h 1mph /  1.6km/h 29% 0in /  0.0mm 0.0 W/m2 CLR
18:27 67.5 °F /  19.7 °C 34.9 °F /  1.6 °C 30.1in /  1017.5hPa WSW 2.3mph /  3.7km/h 2.3mph /  3.7km/h 30% 0in /  0.0mm 0.0 W/m2 CLR
18:32 66.9 °F /  19.4 °C 33.6 °F /  0.9 °C 30.1in /  1017.5hPa WSW 1.2mph /  1.9km/h 1.2mph /  1.9km/h 29% 0in /  0.0mm 0.0 W/m2 CLR
18:37 66.6 °F /  19.2 °C 33.3 °F /  0.7 °C 30.1in /  1017.5hPa WSW 2.3mph /  3.7km/h 2.3mph /  3.7km/h 29% 0in /  0.0mm 0.0 W/m2 CLR
18:51 65.7 °F /  18.7 °C 34.2 °F /  1.2 °C 30.1in /  1017.8hPa Calm     31% 0in /  0.0mm 0.0 W/m2 CLR
18:56 65.5 °F /  18.6 °C 34 °F /  1.1 °C 30.1in /  1017.8hPa Calm     31% 0in /  0.0mm 0.0 W/m2 CLR
19:02 64.9 °F /  18.3 °C 33.6 °F /  0.9 °C 30.1in /  1017.8hPa Calm     31% 0in /  0.0mm 0.0 W/m2 CLR
19:09 64.8 °F /  18.2 °C 34.2 °F /  1.2 °C 30.1in /  1017.8hPa Calm     32% 0in /  0.0mm 0.0 W/m2 CLR
19:14 64 °F /  17.8 °C 34.3 °F /  1.3 °C 30.1in /  1017.8hPa North 1mph /  1.6km/h 1mph /  1.6km/h 33% 0in /  0.0mm 0.0 W/m2 CLR
19:21 63.7 °F /  17.6 °C 34.7 °F /  1.5 °C 30.1in /  1017.8hPa Calm     34% 0in /  0.0mm 0.0 W/m2 CLR
19:30 63.1 °F /  17.3 °C 35.1 °F /  1.7 °C 30.1in /  1017.8hPa Calm     35% 0in /  0.0mm 0.0 W/m2 CLR
19:41 62.1 °F /  16.7 °C 35.4 °F /  1.9 °C 30.1in /  1017.8hPa North 1.2mph /  1.9km/h 1.2mph /  1.9km/h 37% 0in /  0.0mm 0.0 W/m2 CLR
19:49 61 °F /  16.1 °C 35.8 °F /  2.1 °C 30.1in /  1017.8hPa Calm     39% 0in /  0.0mm 0.0 W/m2 CLR
19:56 60.4 °F /  15.8 °C 36.7 °F /  2.6 °C 30.1in /  1017.8hPa Calm     41% 0in /  0.0mm 0.0 W/m2 CLR
20:11 58.6 °F /  14.8 °C 36.7 °F /  2.6 °C 30.1in /  1018.2hPa North 1.2mph /  1.9km/h 1.2mph /  1.9km/h 44% 0in /  0.0mm 0.0 W/m2 CLR
20:22 57.7 °F /  14.3 °C 36.7 °F /  2.6 °C 30.1in /  1018.2hPa North 1.2mph /  1.9km/h 1.2mph /  1.9km/h 45% 0in /  0.0mm 0.0 W/m2 CLR
20:27 57.4 °F /  14.1 °C 36.1 °F /  2.3 °C 30.1in /  1018.2hPa Calm     45% 0in /  0.0mm 0.0 W/m2 CLR
20:36 56.8 °F /  13.8 °C 36.3 °F /  2.4 °C 30.1in /  1018.5hPa North 1.2mph /  1.9km/h   46% 0in /  0.0mm 0.0 W/m2 CLR
20:41 56.8 °F /  13.8 °C 36.3 °F /  2.4 °C 30.1in /  1018.2hPa Calm     46% 0in /  0.0mm 0.0 W/m2 CLR
20:46 56.8 °F /  13.8 °C 36.1 °F /  2.3 °C 30.1in /  1018.2hPa North 1.2mph /  1.9km/h 1.2mph /  1.9km/h 46% 0in /  0.0mm 0.0 W/m2 CLR
20:52 56.7 °F /  13.7 °C 35.6 °F /  2.0 °C 30.1in /  1018.5hPa North 1.2mph /  1.9km/h 1.2mph /  1.9km/h 45% 0in /  0.0mm 0.0 W/m2 CLR
20:57 56.7 °F /  13.7 °C 36.1 °F /  2.3 °C 30.1in /  1018.5hPa North 1.2mph /  1.9km/h 1.2mph /  1.9km/h 46% 0in /  0.0mm 0.0 W/m2 CLR
21:13 56.1 °F /  13.4 °C 36.9 °F /  2.7 °C 30.1in /  1018.5hPa North 1.2mph /  1.9km/h 1.2mph /  1.9km/h 48% 0in /  0.0mm 0.0 W/m2 CLR
21:19 56.1 °F /  13.4 °C 36.7 °F /  2.6 °C 30.1in /  1018.5hPa North 2.3mph /  3.7km/h 2.3mph /  3.7km/h 48% 0in /  0.0mm 0.0 W/m2 CLR
21:24 55.9 °F /  13.3 °C 36 °F /  2.2 °C 30.1in /  1018.5hPa Calm   2mph /  3.2km/h 47% 0in /  0.0mm 0.0 W/m2 CLR
21:34 55.6 °F /  13.1 °C 35.1 °F /  1.7 °C 30.1in /  1018.8hPa North 1.2mph /  1.9km/h 1.2mph /  1.9km/h 46% 0in /  0.0mm 0.0 W/m2 CLR
21:51 55.2 °F /  12.9 °C 34.9 °F /  1.6 °C 30.1in /  1018.5hPa North 1.2mph /  1.9km/h 1.2mph /  1.9km/h 46% 0in /  0.0mm 0.0 W/m2 CLR
21:58 55 °F /  12.8 °C 34.7 °F /  1.5 °C 30.1in /  1018.5hPa North 2.3mph /  3.7km/h 2.3mph /  3.7km/h 46% 0in /  0.0mm 0.0 W/m2 CLR
22:16 54.9 °F /  12.7 °C 33.8 °F /  1.0 °C 30.1in /  1018.8hPa North 2mph /  3.2km/h 2mph /  3.2km/h 45% 0in /  0.0mm 0.0 W/m2 CLR
22:21 54.7 °F /  12.6 °C 33.3 °F /  0.7 °C 30.1in /  1018.8hPa North 2.3mph /  3.7km/h 2.3mph /  3.7km/h 44% 0in /  0.0mm 0.0 W/m2 CLR
22:32 54.5 °F /  12.5 °C 33.6 °F /  0.9 °C 30.1in /  1018.8hPa North 2mph /  3.2km/h 2mph /  3.2km/h 45% 0in /  0.0mm 0.0 W/m2 CLR
22:39 54.3 °F /  12.4 °C 33.4 °F /  0.8 °C 30.1in /  1018.8hPa North 1.2mph /  1.9km/h 1.2mph /  1.9km/h 45% 0in /  0.0mm 0.0 W/m2 CLR
22:48 54.1 °F /  12.3 °C 33.8 °F /  1.0 °C 30.1in /  1018.8hPa North 3.5mph /  5.6km/h 3.5mph /  5.6km/h 46% 0in /  0.0mm 0.0 W/m2 CLR
23:00 53.6 °F /  12.0 °C 33.8 °F /  1.0 °C 30.1in /  1018.8hPa NE 3.5mph /  5.6km/h 3.5mph /  5.6km/h 47% 0in /  0.0mm 0.0 W/m2 CLR
23:05 53.2 °F /  11.8 °C 34.2 °F /  1.2 °C 30.1in /  1018.8hPa NE 3mph /  4.8km/h 3mph /  4.8km/h 48% 0in /  0.0mm 0.0 W/m2 CLR
23:18 52.9 °F /  11.6 °C 34.2 °F /  1.2 °C 30.1in /  1018.8hPa NE 2.3mph /  3.7km/h 2.3mph /  3.7km/h 49% 0in /  0.0mm 0.0 W/m2 CLR
23:23 52.9 °F /  11.6 °C 34.2 °F /  1.2 °C 30.1in /  1018.8hPa NE 2.3mph /  3.7km/h 2.3mph /  3.7km/h 49% 0in /  0.0mm 0.0 W/m2 CLR
23:30 52.9 °F /  11.6 °C 33.6 °F /  0.9 °C 30.1in /  1018.8hPa NE 2.3mph /  3.7km/h 2.3mph /  3.7km/h 48% 0in /  0.0mm 0.0 W/m2 CLR
23:39 52.9 °F /  11.6 °C 33.6 °F /  0.9 °C 30.1in /  1018.8hPa NE 2.3mph /  3.7km/h 2.3mph /  3.7km/h 48% 0in /  0.0mm 0.0 W/m2 CLR
23:52 52.5 °F /  11.4 °C 33.4 °F /  0.8 °C 30.1in /  1018.8hPa NE 1.2mph /  1.9km/h 1.2mph /  1.9km/h 48% 0in /  0.0mm 0.0 W/m2 CLR
23:59 52.2 °F /  11.2 °C 33.1 °F /  0.6 °C 30.1in /  1018.8hPa NE 1.2mph /  1.9km/h 1.2mph /  1.9km/h 48% 0in /  0.0mm 0.0 W/m2 CLR
Countryside Manor, Tucson, AZ, USA